sensor_id;sensor_type;location;lat;lon;timestamp;temperature;humidity
70726;DHT22;58304;53.104;6.022;2022-12-08T00:00:52;2.70;99.90
70726;DHT22;58304;53.104;6.022;2022-12-08T00:03:18;2.70;99.90
70726;DHT22;58304;53.104;6.022;2022-12-08T00:05:45;2.70;99.90
70726;DHT22;58304;53.104;6.022;2022-12-08T00:08:29;2.70;99.90
70726;DHT22;58304;53.104;6.022;2022-12-08T00:11:14;2.80;99.90
70726;DHT22;58304;53.104;6.022;2022-12-08T00:13:40;2.80;99.90
70726;DHT22;58304;53.104;6.022;2022-12-08T00:16:06;2.70;99.90
70726;DHT22;58304;53.104;6.022;2022-12-08T00:18:32;2.80;99.90
70726;DHT22;58304;53.104;6.022;2022-12-08T00:20:58;2.70;99.90
70726;DHT22;58304;53.104;6.022;2022-12-08T00:23:23;2.80;99.90
70726;DHT22;58304;53.104;6.022;2022-12-08T00:25:49;2.60;99.90
70726;DHT22;58304;53.104;6.022;2022-12-08T00:28:15;2.50;99.90
70726;DHT22;58304;53.104;6.022;2022-12-08T00:30:41;2.30;99.90
70726;DHT22;58304;53.104;6.022;2022-12-08T00:33:07;2.20;99.90
70726;DHT22;58304;53.104;6.022;2022-12-08T00:35:33;2.20;99.90
70726;DHT22;58304;53.104;6.022;2022-12-08T00:37:59;2.10;99.90
70726;DHT22;58304;53.104;6.022;2022-12-08T00:40:25;2.10;99.90
70726;DHT22;58304;53.104;6.022;2022-12-08T00:42:50;2.10;99.90
70726;DHT22;58304;53.104;6.022;2022-12-08T00:45:16;2.10;99.90
70726;DHT22;58304;53.104;6.022;2022-12-08T00:47:41;2.20;99.90
70726;DHT22;58304;53.104;6.022;2022-12-08T00:50:07;2.20;99.90
70726;DHT22;58304;53.104;6.022;2022-12-08T00:52:33;2.20;99.90
70726;DHT22;58304;53.104;6.022;2022-12-08T00:54:59;2.20;99.90
70726;DHT22;58304;53.104;6.022;2022-12-08T00:57:24;2.20;99.90
70726;DHT22;58304;53.104;6.022;2022-12-08T00:59:50;2.30;99.90
70726;DHT22;58304;53.104;6.022;2022-12-08T01:02:15;2.30;99.90
70726;DHT22;58304;53.104;6.022;2022-12-08T01:04:41;2.30;99.90
70726;DHT22;58304;53.104;6.022;2022-12-08T01:07:07;2.30;99.90
70726;DHT22;58304;53.104;6.022;2022-12-08T01:09:32;2.30;99.90
70726;DHT22;58304;53.104;6.022;2022-12-08T01:11:58;2.30;99.90
70726;DHT22;58304;53.104;6.022;2022-12-08T01:14:23;2.30;99.90
70726;DHT22;58304;53.104;6.022;2022-12-08T01:16:49;2.30;99.90
70726;DHT22;58304;53.104;6.022;2022-12-08T01:19:15;2.30;99.90
70726;DHT22;58304;53.104;6.022;2022-12-08T01:21:42;2.40;99.90
70726;DHT22;58304;53.104;6.022;2022-12-08T01:24:13;2.40;99.90
70726;DHT22;58304;53.104;6.022;2022-12-08T01:26:39;2.40;99.90
70726;DHT22;58304;53.104;6.022;2022-12-08T01:29:05;2.40;99.90
70726;DHT22;58304;53.104;6.022;2022-12-08T01:31:30;2.40;99.90
70726;DHT22;58304;53.104;6.022;2022-12-08T01:33:56;2.40;99.90
70726;DHT22;58304;53.104;6.022;2022-12-08T01:36:28;2.30;99.90
70726;DHT22;58304;53.104;6.022;2022-12-08T01:38:57;2.30;99.90
70726;DHT22;58304;53.104;6.022;2022-12-08T01:41:25;2.30;99.90
70726;DHT22;58304;53.104;6.022;2022-12-08T01:46:28;2.20;99.90
70726;DHT22;58304;53.104;6.022;2022-12-08T01:49:20;2.20;99.90
70726;DHT22;58304;53.104;6.022;2022-12-08T01:51:59;2.20;99.90
70726;DHT22;58304;53.104;6.022;2022-12-08T01:54:32;2.20;99.90
70726;DHT22;58304;53.104;6.022;2022-12-08T01:57:03;2.20;99.90
70726;DHT22;58304;53.104;6.022;2022-12-08T01:59:29;2.20;99.90
70726;DHT22;58304;53.104;6.022;2022-12-08T02:01:57;2.20;99.90
70726;DHT22;58304;53.104;6.022;2022-12-08T02:04:23;2.20;99.90
70726;DHT22;58304;53.104;6.022;2022-12-08T02:06:50;2.20;99.90
70726;DHT22;58304;53.104;6.022;2022-12-08T02:09:16;2.30;99.90
70726;DHT22;58304;53.104;6.022;2022-12-08T02:11:42;2.30;99.90
70726;DHT22;58304;53.104;6.022;2022-12-08T02:14:09;2.30;99.90
70726;DHT22;58304;53.104;6.022;2022-12-08T02:16:52;2.30;99.90
70726;DHT22;58304;53.104;6.022;2022-12-08T02:24:56;2.40;99.90
70726;DHT22;58304;53.104;6.022;2022-12-08T02:27:43;2.40;99.90
70726;DHT22;58304;53.104;6.022;2022-12-08T02:30:40;2.40;99.90
70726;DHT22;58304;53.104;6.022;2022-12-08T02:33:54;2.50;99.90
70726;DHT22;58304;53.104;6.022;2022-12-08T02:36:46;2.40;99.90
70726;DHT22;58304;53.104;6.022;2022-12-08T02:42:24;2.40;99.90
70726;DHT22;58304;53.104;6.022;2022-12-08T02:44:55;2.40;99.90
70726;DHT22;58304;53.104;6.022;2022-12-08T02:47:22;2.40;99.90
70726;DHT22;58304;53.104;6.022;2022-12-08T02:49:48;2.40;99.90
70726;DHT22;58304;53.104;6.022;2022-12-08T02:54:44;2.40;99.90
70726;DHT22;58304;53.104;6.022;2022-12-08T02:57:24;2.40;99.90
70726;DHT22;58304;53.104;6.022;2022-12-08T03:02:34;2.30;99.90
70726;DHT22;58304;53.104;6.022;2022-12-08T03:05:04;2.20;99.90
70726;DHT22;58304;53.104;6.022;2022-12-08T03:07:46;2.00;99.90
70726;DHT22;58304;53.104;6.022;2022-12-08T03:10:20;1.90;99.90
70726;DHT22;58304;53.104;6.022;2022-12-08T03:13:04;1.80;99.90
70726;DHT22;58304;53.104;6.022;2022-12-08T03:15:30;1.80;99.90
70726;DHT22;58304;53.104;6.022;2022-12-08T03:17:58;1.80;99.90
70726;DHT22;58304;53.104;6.022;2022-12-08T03:20:27;1.70;99.90
70726;DHT22;58304;53.104;6.022;2022-12-08T03:22:56;1.70;99.90
70726;DHT22;58304;53.104;6.022;2022-12-08T03:25:25;1.70;99.90
70726;DHT22;58304;53.104;6.022;2022-12-08T03:27:52;1.60;99.90
70726;DHT22;58304;53.104;6.022;2022-12-08T03:30:18;1.60;99.90
70726;DHT22;58304;53.104;6.022;2022-12-08T03:32:51;1.50;99.90
70726;DHT22;58304;53.104;6.022;2022-12-08T03:35:23;1.50;99.90
70726;DHT22;58304;53.104;6.022;2022-12-08T03:37:50;1.50;99.90
70726;DHT22;58304;53.104;6.022;2022-12-08T03:40:18;1.40;99.90
70726;DHT22;58304;53.104;6.022;2022-12-08T03:42:44;1.40;99.90
70726;DHT22;58304;53.104;6.022;2022-12-08T03:45:10;1.40;99.90
70726;DHT22;58304;53.104;6.022;2022-12-08T03:47:36;1.40;99.90
70726;DHT22;58304;53.104;6.022;2022-12-08T03:50:02;1.40;99.90
70726;DHT22;58304;53.104;6.022;2022-12-08T03:52:27;1.40;99.90
70726;DHT22;58304;53.104;6.022;2022-12-08T03:54:53;1.40;99.90
70726;DHT22;58304;53.104;6.022;2022-12-08T03:57:19;1.30;99.90
70726;DHT22;58304;53.104;6.022;2022-12-08T03:59:46;1.30;99.90
70726;DHT22;58304;53.104;6.022;2022-12-08T04:02:11;1.30;99.90
70726;DHT22;58304;53.104;6.022;2022-12-08T04:04:37;1.30;99.90
70726;DHT22;58304;53.104;6.022;2022-12-08T04:07:03;1.40;99.90
70726;DHT22;58304;53.104;6.022;2022-12-08T04:09:29;1.40;99.90
70726;DHT22;58304;53.104;6.022;2022-12-08T04:11:54;1.40;99.90
70726;DHT22;58304;53.104;6.022;2022-12-08T04:14:20;1.30;99.90
70726;DHT22;58304;53.104;6.022;2022-12-08T04:16:45;1.30;99.90
70726;DHT22;58304;53.104;6.022;2022-12-08T04:19:11;1.30;99.90
70726;DHT22;58304;53.104;6.022;2022-12-08T04:21:36;1.20;99.90
70726;DHT22;58304;53.104;6.022;2022-12-08T04:24:02;1.20;99.90
70726;DHT22;58304;53.104;6.022;2022-12-08T04:26:28;1.20;99.90
70726;DHT22;58304;53.104;6.022;2022-12-08T04:28:53;1.10;99.90
70726;DHT22;58304;53.104;6.022;2022-12-08T04:31:19;1.10;99.90
70726;DHT22;58304;53.104;6.022;2022-12-08T04:33:45;1.10;99.90
70726;DHT22;58304;53.104;6.022;2022-12-08T04:36:10;1.10;99.90
70726;DHT22;58304;53.104;6.022;2022-12-08T04:38:36;1.10;99.90
70726;DHT22;58304;53.104;6.022;2022-12-08T04:41:02;1.10;99.90
70726;DHT22;58304;53.104;6.022;2022-12-08T04:43:27;1.10;99.90
70726;DHT22;58304;53.104;6.022;2022-12-08T04:45:53;1.10;99.90
70726;DHT22;58304;53.104;6.022;2022-12-08T04:48:18;1.10;99.90
70726;DHT22;58304;53.104;6.022;2022-12-08T04:50:44;1.10;99.90
70726;DHT22;58304;53.104;6.022;2022-12-08T04:53:11;1.10;99.90
70726;DHT22;58304;53.104;6.022;2022-12-08T04:55:41;1.10;99.90
70726;DHT22;58304;53.104;6.022;2022-12-08T04:58:13;1.20;99.90
70726;DHT22;58304;53.104;6.022;2022-12-08T05:00:40;1.20;99.90
70726;DHT22;58304;53.104;6.022;2022-12-08T05:03:06;1.20;99.90
70726;DHT22;58304;53.104;6.022;2022-12-08T05:05:32;1.20;99.90
70726;DHT22;58304;53.104;6.022;2022-12-08T05:07:58;1.20;99.90
70726;DHT22;58304;53.104;6.022;2022-12-08T05:10:25;1.30;99.90
70726;DHT22;58304;53.104;6.022;2022-12-08T05:12:51;1.30;99.90
70726;DHT22;58304;53.104;6.022;2022-12-08T05:15:17;1.20;99.90
70726;DHT22;58304;53.104;6.022;2022-12-08T05:17:42;1.20;99.90
70726;DHT22;58304;53.104;6.022;2022-12-08T05:20:09;1.20;99.90
70726;DHT22;58304;53.104;6.022;2022-12-08T05:22:34;1.20;99.90
70726;DHT22;58304;53.104;6.022;2022-12-08T05:25:00;1.20;99.90
70726;DHT22;58304;53.104;6.022;2022-12-08T05:27:26;1.20;99.90
70726;DHT22;58304;53.104;6.022;2022-12-08T05:29:51;1.10;99.90
70726;DHT22;58304;53.104;6.022;2022-12-08T05:32:17;1.10;99.90
70726;DHT22;58304;53.104;6.022;2022-12-08T05:34:43;1.10;99.90
70726;DHT22;58304;53.104;6.022;2022-12-08T05:37:08;1.10;99.90
70726;DHT22;58304;53.104;6.022;2022-12-08T05:39:34;1.20;99.90
70726;DHT22;58304;53.104;6.022;2022-12-08T05:42:00;1.20;99.90
70726;DHT22;58304;53.104;6.022;2022-12-08T05:44:25;1.20;99.90
70726;DHT22;58304;53.104;6.022;2022-12-08T05:46:51;1.20;99.90
70726;DHT22;58304;53.104;6.022;2022-12-08T05:49:17;1.20;99.90
70726;DHT22;58304;53.104;6.022;2022-12-08T05:51:42;1.20;99.90
70726;DHT22;58304;53.104;6.022;2022-12-08T05:54:08;1.20;99.90
70726;DHT22;58304;53.104;6.022;2022-12-08T05:56:34;1.20;99.90
70726;DHT22;58304;53.104;6.022;2022-12-08T05:59:00;1.20;99.90
70726;DHT22;58304;53.104;6.022;2022-12-08T06:01:30;1.20;99.90
70726;DHT22;58304;53.104;6.022;2022-12-08T06:03:57;1.20;99.90
70726;DHT22;58304;53.104;6.022;2022-12-08T06:06:23;1.20;99.90
70726;DHT22;58304;53.104;6.022;2022-12-08T06:08:49;1.20;99.90
70726;DHT22;58304;53.104;6.022;2022-12-08T06:11:23;1.30;99.90
70726;DHT22;58304;53.104;6.022;2022-12-08T06:13:50;1.30;99.90
70726;DHT22;58304;53.104;6.022;2022-12-08T06:16:16;1.30;99.90
70726;DHT22;58304;53.104;6.022;2022-12-08T06:18:41;1.30;99.90
70726;DHT22;58304;53.104;6.022;2022-12-08T06:21:09;1.30;99.90
70726;DHT22;58304;53.104;6.022;2022-12-08T06:23:35;1.30;99.90
70726;DHT22;58304;53.104;6.022;2022-12-08T06:26:07;1.30;99.90
70726;DHT22;58304;53.104;6.022;2022-12-08T06:28:34;1.30;99.90
70726;DHT22;58304;53.104;6.022;2022-12-08T06:30:59;1.20;99.90
70726;DHT22;58304;53.104;6.022;2022-12-08T06:33:30;1.20;99.90
70726;DHT22;58304;53.104;6.022;2022-12-08T06:35:57;1.20;99.90
70726;DHT22;58304;53.104;6.022;2022-12-08T06:38:23;1.20;99.90
70726;DHT22;58304;53.104;6.022;2022-12-08T06:40:55;1.20;99.90
70726;DHT22;58304;53.104;6.022;2022-12-08T06:43:21;1.20;99.90
70726;DHT22;58304;53.104;6.022;2022-12-08T06:45:48;1.10;99.90
70726;DHT22;58304;53.104;6.022;2022-12-08T06:48:13;1.10;99.90
70726;DHT22;58304;53.104;6.022;2022-12-08T06:50:41;1.10;99.90
70726;DHT22;58304;53.104;6.022;2022-12-08T06:53:07;1.00;99.90
70726;DHT22;58304;53.104;6.022;2022-12-08T06:55:33;1.00;99.90
70726;DHT22;58304;53.104;6.022;2022-12-08T06:57:58;1.00;99.90
70726;DHT22;58304;53.104;6.022;2022-12-08T07:00:24;0.90;99.90
70726;DHT22;58304;53.104;6.022;2022-12-08T07:02:49;0.90;99.90
70726;DHT22;58304;53.104;6.022;2022-12-08T07:05:15;0.90;99.90
70726;DHT22;58304;53.104;6.022;2022-12-08T07:07:41;0.90;99.90
70726;DHT22;58304;53.104;6.022;2022-12-08T07:10:07;0.90;99.90
70726;DHT22;58304;53.104;6.022;2022-12-08T07:12:33;0.80;99.90
70726;DHT22;58304;53.104;6.022;2022-12-08T07:14:58;0.80;99.90
70726;DHT22;58304;53.104;6.022;2022-12-08T07:17:24;0.70;99.90
70726;DHT22;58304;53.104;6.022;2022-12-08T07:19:50;0.70;99.90
70726;DHT22;58304;53.104;6.022;2022-12-08T07:22:15;0.70;99.90
70726;DHT22;58304;53.104;6.022;2022-12-08T07:24:41;0.60;99.90
70726;DHT22;58304;53.104;6.022;2022-12-08T07:27:07;0.60;99.90
70726;DHT22;58304;53.104;6.022;2022-12-08T07:29:32;0.60;99.90
70726;DHT22;58304;53.104;6.022;2022-12-08T07:31:58;0.50;99.90
70726;DHT22;58304;53.104;6.022;2022-12-08T07:34:24;0.50;99.90
70726;DHT22;58304;53.104;6.022;2022-12-08T07:36:49;0.50;99.90
70726;DHT22;58304;53.104;6.022;2022-12-08T07:39:15;0.50;99.90
70726;DHT22;58304;53.104;6.022;2022-12-08T07:41:40;0.50;99.90
70726;DHT22;58304;53.104;6.022;2022-12-08T07:44:06;0.40;99.90
70726;DHT22;58304;53.104;6.022;2022-12-08T07:46:31;0.40;99.90
70726;DHT22;58304;53.104;6.022;2022-12-08T07:48:57;0.40;99.90
70726;DHT22;58304;53.104;6.022;2022-12-08T07:51:23;0.40;99.90
70726;DHT22;58304;53.104;6.022;2022-12-08T07:53:49;0.40;99.90
70726;DHT22;58304;53.104;6.022;2022-12-08T07:56:15;0.40;99.90
70726;DHT22;58304;53.104;6.022;2022-12-08T07:58:41;0.40;99.90
70726;DHT22;58304;53.104;6.022;2022-12-08T08:01:27;0.40;99.90
70726;DHT22;58304;53.104;6.022;2022-12-08T08:03:54;0.40;99.90
70726;DHT22;58304;53.104;6.022;2022-12-08T08:06:20;0.40;99.90
70726;DHT22;58304;53.104;6.022;2022-12-08T08:08:45;0.40;99.90
70726;DHT22;58304;53.104;6.022;2022-12-08T08:11:12;0.40;99.90
70726;DHT22;58304;53.104;6.022;2022-12-08T08:13:37;0.30;99.90
70726;DHT22;58304;53.104;6.022;2022-12-08T08:16:05;0.30;99.90
70726;DHT22;58304;53.104;6.022;2022-12-08T08:18:31;0.30;99.90
70726;DHT22;58304;53.104;6.022;2022-12-08T08:20:57;0.30;99.90
70726;DHT22;58304;53.104;6.022;2022-12-08T08:23:22;0.20;99.90
70726;DHT22;58304;53.104;6.022;2022-12-08T08:25:48;0.30;99.90
70726;DHT22;58304;53.104;6.022;2022-12-08T08:28:13;0.30;99.90
70726;DHT22;58304;53.104;6.022;2022-12-08T08:30:40;0.30;99.90
70726;DHT22;58304;53.104;6.022;2022-12-08T08:33:05;0.30;99.90
70726;DHT22;58304;53.104;6.022;2022-12-08T08:35:32;0.40;99.90
70726;DHT22;58304;53.104;6.022;2022-12-08T08:37:58;0.30;99.90
70726;DHT22;58304;53.104;6.022;2022-12-08T08:40:24;0.40;99.90
70726;DHT22;58304;53.104;6.022;2022-12-08T08:42:50;0.30;99.90
70726;DHT22;58304;53.104;6.022;2022-12-08T08:45:16;0.40;99.90
70726;DHT22;58304;53.104;6.022;2022-12-08T08:47:41;0.50;99.90
70726;DHT22;58304;53.104;6.022;2022-12-08T08:50:07;0.40;99.90
70726;DHT22;58304;53.104;6.022;2022-12-08T08:52:33;0.50;99.90
70726;DHT22;58304;53.104;6.022;2022-12-08T08:54:58;0.60;99.90
70726;DHT22;58304;53.104;6.022;2022-12-08T08:57:24;0.70;99.90
70726;DHT22;58304;53.104;6.022;2022-12-08T08:59:49;0.80;99.90
70726;DHT22;58304;53.104;6.022;2022-12-08T09:02:16;1.00;99.90
70726;DHT22;58304;53.104;6.022;2022-12-08T09:04:43;1.20;99.90
70726;DHT22;58304;53.104;6.022;2022-12-08T09:07:09;1.30;99.90
70726;DHT22;58304;53.104;6.022;2022-12-08T09:09:35;1.60;99.90
70726;DHT22;58304;53.104;6.022;2022-12-08T09:12:00;1.90;99.90
70726;DHT22;58304;53.104;6.022;2022-12-08T09:14:26;2.30;99.90
70726;DHT22;58304;53.104;6.022;2022-12-08T09:16:52;2.70;99.90
70726;DHT22;58304;53.104;6.022;2022-12-08T09:19:18;3.00;99.90
70726;DHT22;58304;53.104;6.022;2022-12-08T09:21:43;3.00;99.90
70726;DHT22;58304;53.104;6.022;2022-12-08T09:24:09;3.00;99.90
70726;DHT22;58304;53.104;6.022;2022-12-08T09:26:40;3.10;99.90
70726;DHT22;58304;53.104;6.022;2022-12-08T09:29:06;3.00;99.90
70726;DHT22;58304;53.104;6.022;2022-12-08T09:31:32;3.30;99.90
70726;DHT22;58304;53.104;6.022;2022-12-08T09:33:57;3.60;99.90
70726;DHT22;58304;53.104;6.022;2022-12-08T09:36:24;4.00;99.90
70726;DHT22;58304;53.104;6.022;2022-12-08T09:38:50;4.00;99.90
70726;DHT22;58304;53.104;6.022;2022-12-08T09:41:26;4.10;99.90
70726;DHT22;58304;53.104;6.022;2022-12-08T09:44:11;4.90;99.90
70726;DHT22;58304;53.104;6.022;2022-12-08T09:46:38;5.80;99.90
70726;DHT22;58304;53.104;6.022;2022-12-08T09:49:12;6.80;99.90
70726;DHT22;58304;53.104;6.022;2022-12-08T09:51:40;7.50;99.90
70726;DHT22;58304;53.104;6.022;2022-12-08T09:54:23;7.90;99.90
70726;DHT22;58304;53.104;6.022;2022-12-08T09:56:53;7.90;99.90
70726;DHT22;58304;53.104;6.022;2022-12-08T09:59:34;8.50;99.90
70726;DHT22;58304;53.104;6.022;2022-12-08T10:02:01;8.90;99.90
70726;DHT22;58304;53.104;6.022;2022-12-08T10:04:32;9.00;99.90
70726;DHT22;58304;53.104;6.022;2022-12-08T10:14:54;9.40;99.90
70726;DHT22;58304;53.104;6.022;2022-12-08T10:17:31;9.60;99.90
70726;DHT22;58304;53.104;6.022;2022-12-08T10:20:12;10.10;99.90
70726;DHT22;58304;53.104;6.022;2022-12-08T10:22:39;10.60;99.90
70726;DHT22;58304;53.104;6.022;2022-12-08T10:25:14;11.00;99.90
70726;DHT22;58304;53.104;6.022;2022-12-08T10:27:42;10.90;99.90
70726;DHT22;58304;53.104;6.022;2022-12-08T10:30:11;11.30;99.90
70726;DHT22;58304;53.104;6.022;2022-12-08T10:32:39;11.60;99.90
70726;DHT22;58304;53.104;6.022;2022-12-08T10:35:11;11.80;99.90
70726;DHT22;58304;53.104;6.022;2022-12-08T10:37:38;12.00;99.90
70726;DHT22;58304;53.104;6.022;2022-12-08T10:40:16;12.20;99.90
70726;DHT22;58304;53.104;6.022;2022-12-08T10:42:46;12.00;99.90
70726;DHT22;58304;53.104;6.022;2022-12-08T10:45:19;11.60;99.90
70726;DHT22;58304;53.104;6.022;2022-12-08T10:48:01;11.30;99.90
70726;DHT22;58304;53.104;6.022;2022-12-08T10:58:33;9.20;99.90
70726;DHT22;58304;53.104;6.022;2022-12-08T11:01:19;8.80;99.90
70726;DHT22;58304;53.104;6.022;2022-12-08T11:03:51;8.40;99.90
70726;DHT22;58304;53.104;6.022;2022-12-08T11:06:39;8.20;99.90
70726;DHT22;58304;53.104;6.022;2022-12-08T11:11:53;7.40;99.90
70726;DHT22;58304;53.104;6.022;2022-12-08T11:16:52;7.00;99.90
70726;DHT22;58304;53.104;6.022;2022-12-08T11:19:20;6.60;99.90
70726;DHT22;58304;53.104;6.022;2022-12-08T11:21:46;6.40;99.90
70726;DHT22;58304;53.104;6.022;2022-12-08T11:24:20;5.90;99.90
70726;DHT22;58304;53.104;6.022;2022-12-08T11:26:59;5.50;99.90
70726;DHT22;58304;53.104;6.022;2022-12-08T11:29:27;5.20;99.90
70726;DHT22;58304;53.104;6.022;2022-12-08T11:31:59;5.20;99.90
70726;DHT22;58304;53.104;6.022;2022-12-08T11:34:33;5.30;99.90
70726;DHT22;58304;53.104;6.022;2022-12-08T11:37:02;5.40;99.90
70726;DHT22;58304;53.104;6.022;2022-12-08T11:39:31;5.60;99.90
70726;DHT22;58304;53.104;6.022;2022-12-08T11:42:01;5.90;99.90
70726;DHT22;58304;53.104;6.022;2022-12-08T11:44:46;6.10;99.90
70726;DHT22;58304;53.104;6.022;2022-12-08T11:47:18;6.10;99.90
70726;DHT22;58304;53.104;6.022;2022-12-08T11:49:48;6.00;99.90
70726;DHT22;58304;53.104;6.022;2022-12-08T11:57:40;6.80;99.90
70726;DHT22;58304;53.104;6.022;2022-12-08T12:00:08;6.90;99.90
70726;DHT22;58304;53.104;6.022;2022-12-08T12:02:37;7.00;99.90
70726;DHT22;58304;53.104;6.022;2022-12-08T12:05:08;7.20;99.90
70726;DHT22;58304;53.104;6.022;2022-12-08T12:13:35;7.00;99.90
70726;DHT22;58304;53.104;6.022;2022-12-08T12:16:41;7.20;99.90
70726;DHT22;58304;53.104;6.022;2022-12-08T12:19:15;7.40;99.90
70726;DHT22;58304;53.104;6.022;2022-12-08T12:21:43;7.30;99.90
70726;DHT22;58304;53.104;6.022;2022-12-08T12:24:21;7.20;99.90
70726;DHT22;58304;53.104;6.022;2022-12-08T12:26:55;7.10;99.90
70726;DHT22;58304;53.104;6.022;2022-12-08T12:29:24;7.10;99.90
70726;DHT22;58304;53.104;6.022;2022-12-08T12:31:53;7.10;99.90
70726;DHT22;58304;53.104;6.022;2022-12-08T12:34:31;7.10;99.90
70726;DHT22;58304;53.104;6.022;2022-12-08T12:37:15;7.00;99.90
70726;DHT22;58304;53.104;6.022;2022-12-08T12:39:53;6.90;99.90
70726;DHT22;58304;53.104;6.022;2022-12-08T12:42:43;6.70;99.90
70726;DHT22;58304;53.104;6.022;2022-12-08T12:45:11;7.00;99.90
70726;DHT22;58304;53.104;6.022;2022-12-08T12:50:41;7.40;99.90
70726;DHT22;58304;53.104;6.022;2022-12-08T12:55:55;7.30;99.90
70726;DHT22;58304;53.104;6.022;2022-12-08T13:03:48;7.70;99.90
70726;DHT22;58304;53.104;6.022;2022-12-08T13:06:22;7.60;99.90
70726;DHT22;58304;53.104;6.022;2022-12-08T13:08:52;7.70;99.90
70726;DHT22;58304;53.104;6.022;2022-12-08T13:11:20;7.70;99.90
70726;DHT22;58304;53.104;6.022;2022-12-08T13:14:01;7.70;99.90
70726;DHT22;58304;53.104;6.022;2022-12-08T13:16:33;7.80;99.90
70726;DHT22;58304;53.104;6.022;2022-12-08T13:19:03;7.80;99.90
70726;DHT22;58304;53.104;6.022;2022-12-08T13:21:35;7.70;99.90
70726;DHT22;58304;53.104;6.022;2022-12-08T13:26:46;7.60;99.90
70726;DHT22;58304;53.104;6.022;2022-12-08T13:29:23;7.50;99.90
70726;DHT22;58304;53.104;6.022;2022-12-08T13:31:52;7.40;99.90
70726;DHT22;58304;53.104;6.022;2022-12-08T13:42:23;7.00;99.90
70726;DHT22;58304;53.104;6.022;2022-12-08T13:44:58;6.80;99.90
70726;DHT22;58304;53.104;6.022;2022-12-08T13:47:33;6.50;99.90
70726;DHT22;58304;53.104;6.022;2022-12-08T13:52:50;6.20;99.90
70726;DHT22;58304;53.104;6.022;2022-12-08T13:55:22;6.10;99.90
70726;DHT22;58304;53.104;6.022;2022-12-08T13:57:50;6.10;99.90
70726;DHT22;58304;53.104;6.022;2022-12-08T14:00:17;5.80;99.90
70726;DHT22;58304;53.104;6.022;2022-12-08T14:02:58;5.70;99.90
70726;DHT22;58304;53.104;6.022;2022-12-08T14:05:25;5.50;99.90
70726;DHT22;58304;53.104;6.022;2022-12-08T14:07:54;5.50;99.90
70726;DHT22;58304;53.104;6.022;2022-12-08T14:10:29;5.60;99.90
70726;DHT22;58304;53.104;6.022;2022-12-08T14:13:03;5.70;99.90
70726;DHT22;58304;53.104;6.022;2022-12-08T14:15:31;5.70;99.90
70726;DHT22;58304;53.104;6.022;2022-12-08T14:17:57;5.70;99.90
70726;DHT22;58304;53.104;6.022;2022-12-08T14:22:50;5.80;99.90
70726;DHT22;58304;53.104;6.022;2022-12-08T14:25:17;5.80;99.90
70726;DHT22;58304;53.104;6.022;2022-12-08T14:27:43;5.70;99.90
70726;DHT22;58304;53.104;6.022;2022-12-08T14:32:43;5.30;99.90
70726;DHT22;58304;53.104;6.022;2022-12-08T14:35:30;5.20;99.90
70726;DHT22;58304;53.104;6.022;2022-12-08T14:37:59;5.10;99.90
70726;DHT22;58304;53.104;6.022;2022-12-08T14:51:04;4.30;99.90
70726;DHT22;58304;53.104;6.022;2022-12-08T15:01:36;4.00;99.90
70726;DHT22;58304;53.104;6.022;2022-12-08T15:06:50;3.80;99.90
70726;DHT22;58304;53.104;6.022;2022-12-08T15:09:30;3.70;99.90
70726;DHT22;58304;53.104;6.022;2022-12-08T15:12:20;3.50;99.90
70726;DHT22;58304;53.104;6.022;2022-12-08T15:17:42;3.30;99.90
70726;DHT22;58304;53.104;6.022;2022-12-08T15:22:50;3.20;99.90
70726;DHT22;58304;53.104;6.022;2022-12-08T15:25:16;3.00;99.90
70726;DHT22;58304;53.104;6.022;2022-12-08T15:27:42;2.90;99.90
70726;DHT22;58304;53.104;6.022;2022-12-08T15:30:15;2.90;99.90
70726;DHT22;58304;53.104;6.022;2022-12-08T15:32:41;2.90;99.90
70726;DHT22;58304;53.104;6.022;2022-12-08T15:35:14;2.80;99.90
70726;DHT22;58304;53.104;6.022;2022-12-08T15:37:40;2.80;99.90
70726;DHT22;58304;53.104;6.022;2022-12-08T15:40:09;2.70;99.90
70726;DHT22;58304;53.104;6.022;2022-12-08T15:42:39;2.60;99.90
70726;DHT22;58304;53.104;6.022;2022-12-08T15:45:05;2.50;99.90
70726;DHT22;58304;53.104;6.022;2022-12-08T15:47:31;2.40;99.90
70726;DHT22;58304;53.104;6.022;2022-12-08T15:49:57;2.30;99.90
70726;DHT22;58304;53.104;6.022;2022-12-08T15:52:23;2.20;99.90
70726;DHT22;58304;53.104;6.022;2022-12-08T15:54:49;2.10;99.90
70726;DHT22;58304;53.104;6.022;2022-12-08T15:57:22;2.10;99.90
70726;DHT22;58304;53.104;6.022;2022-12-08T15:59:48;2.00;99.90
70726;DHT22;58304;53.104;6.022;2022-12-08T16:02:14;2.00;99.90
70726;DHT22;58304;53.104;6.022;2022-12-08T16:04:40;2.00;99.90
70726;DHT22;58304;53.104;6.022;2022-12-08T16:07:06;2.00;99.90
70726;DHT22;58304;53.104;6.022;2022-12-08T16:09:40;1.90;99.90
70726;DHT22;58304;53.104;6.022;2022-12-08T16:12:26;1.80;99.90
70726;DHT22;58304;53.104;6.022;2022-12-08T16:15:12;1.70;99.90
70726;DHT22;58304;53.104;6.022;2022-12-08T16:17:38;1.60;99.90
70726;DHT22;58304;53.104;6.022;2022-12-08T16:20:07;1.50;99.90
70726;DHT22;58304;53.104;6.022;2022-12-08T16:22:35;1.50;99.90
70726;DHT22;58304;53.104;6.022;2022-12-08T16:25:00;1.50;99.90
70726;DHT22;58304;53.104;6.022;2022-12-08T16:27:28;1.40;99.90
70726;DHT22;58304;53.104;6.022;2022-12-08T16:29:56;1.40;99.90
70726;DHT22;58304;53.104;6.022;2022-12-08T16:32:23;1.40;99.90
70726;DHT22;58304;53.104;6.022;2022-12-08T16:34:49;1.40;99.90
70726;DHT22;58304;53.104;6.022;2022-12-08T16:37:17;1.30;99.90
70726;DHT22;58304;53.104;6.022;2022-12-08T16:39:43;1.20;99.90
70726;DHT22;58304;53.104;6.022;2022-12-08T16:42:27;1.10;99.90
70726;DHT22;58304;53.104;6.022;2022-12-08T16:47:34;1.00;99.90
70726;DHT22;58304;53.104;6.022;2022-12-08T16:50:04;0.90;99.90
70726;DHT22;58304;53.104;6.022;2022-12-08T16:52:30;0.90;99.90
70726;DHT22;58304;53.104;6.022;2022-12-08T16:54:55;0.90;99.90
70726;DHT22;58304;53.104;6.022;2022-12-08T16:57:21;0.90;99.90
70726;DHT22;58304;53.104;6.022;2022-12-08T16:59:46;0.90;99.90
70726;DHT22;58304;53.104;6.022;2022-12-08T17:02:12;0.90;99.90
70726;DHT22;58304;53.104;6.022;2022-12-08T17:04:37;0.90;99.90
70726;DHT22;58304;53.104;6.022;2022-12-08T17:07:03;0.90;99.90
70726;DHT22;58304;53.104;6.022;2022-12-08T17:09:30;0.80;99.90
70726;DHT22;58304;53.104;6.022;2022-12-08T17:11:56;0.70;99.90
70726;DHT22;58304;53.104;6.022;2022-12-08T17:14:22;0.60;99.90
70726;DHT22;58304;53.104;6.022;2022-12-08T17:16:47;0.60;99.90
70726;DHT22;58304;53.104;6.022;2022-12-08T17:19:13;0.60;99.90
70726;DHT22;58304;53.104;6.022;2022-12-08T17:21:40;0.60;99.90
70726;DHT22;58304;53.104;6.022;2022-12-08T17:24:05;0.60;99.90
70726;DHT22;58304;53.104;6.022;2022-12-08T17:26:31;0.50;99.90
70726;DHT22;58304;53.104;6.022;2022-12-08T17:28:57;0.60;99.90
70726;DHT22;58304;53.104;6.022;2022-12-08T17:31:22;0.60;99.90
70726;DHT22;58304;53.104;6.022;2022-12-08T17:33:48;0.50;99.90
70726;DHT22;58304;53.104;6.022;2022-12-08T17:36:15;0.50;99.90
70726;DHT22;58304;53.104;6.022;2022-12-08T17:38:42;0.40;99.90
70726;DHT22;58304;53.104;6.022;2022-12-08T17:41:09;0.40;99.90
70726;DHT22;58304;53.104;6.022;2022-12-08T17:43:36;0.40;99.90